Tuesday, October 17, 2017, 2:56 PM EDT
Back to Local

KUKT, Quakertown, Quakertown Airport

Location: Quakertown, PA, United States Lat: 40.435
Local Time: 2:56 PM EDT (18:56 GMT) Lon: -75.382
Time Zone: US/Eastern Elev: 524 ft

Show me the last for .
Show Coded

Time T Td Feel RH Dir Speed Gust Alt SLP Vis Weather Sky Remarks
2017-10-17 14:35 57 32 - 38 310° 6 - 30.29 - 10 CLR None
2017-10-17 14:15 57 32 - 38 290° 5 - 30.30 - 10 CLR None
2017-10-17 13:55 57 34 - 41 330° 6 - 30.30 - 10 CLR None
2017-10-17 13:35 55 32 - 40 300° 6 - 30.31 - 10 CLR None
2017-10-17 13:15 55 34 - 43 260° 3 - 30.32 - 10 CLR None
2017-10-17 12:55 54 34 - 46 280° 5 - 30.33 - 10 CLR None
2017-10-17 12:35 54 32 - 43 230° 3 - 30.34 - 10 CLR None
2017-10-17 12:15 54 34 - 46 - Calm - 30.34 - 10 CLR None
2017-10-17 11:55 52 32 - 46 20° 3 - 30.35 - 10 CLR None
2017-10-17 11:35 50 34 49 53 320° 3 - 30.35 - 10 CLR None
2017-10-17 11:15 50 32 49 49 60° 3 - 30.36 - 10 CLR None
2017-10-17 10:55 48 34 47 57 270° 3 - 30.36 - 10 CLR None
2017-10-17 10:35 48 34 47 57 50° 3 - 30.37 - 10 CLR None
2017-10-17 10:15 46 34 44 61 70° 5 - 30.37 - 10 CLR None
2017-10-17 09:55 46 34 44 61 60° 5 - 30.37 - 10 CLR None
2017-10-17 09:35 45 34 43 65 20° 3 - 30.37 - 10 CLR None
2017-10-17 09:15 45 32 41 61 10° 6 - 30.37 - 10 CLR None
2017-10-17 08:55 43 32 41 65 360° 3 - 30.37 - 10 CLR None
2017-10-17 08:35 41 32 39 70 360° 3 - 30.36 - 10 CLR None
2017-10-17 08:15 39 32 37 75 360° 3 - 30.35 - 10 CLR None
2017-10-17 07:55 36 32 - 86 - Calm - 30.34 - 10 CLR None
2017-10-17 07:35 37 32 35 80 350° 3 - 30.33 - 10 CLR None
2017-10-17 07:15 36 32 32 86 340° 5 - 30.33 - 10 CLR None
2017-10-17 06:55 34 32 - 93 - Calm - 30.34 - 10 CLR None
2017-10-17 06:35 36 32 - 86 - Calm - 30.33 - 10 CLR None
2017-10-17 06:15 34 32 31 93 330° 3 - 30.32 - 10 CLR None
2017-10-17 05:55 36 32 - 86 - Calm - 30.32 - 10 CLR None
2017-10-17 05:35 34 32 - 93 - Calm - 30.31 - 10 CLR None
2017-10-17 05:15 36 32 - 86 - Calm - 30.30 - 10 CLR None
2017-10-17 04:55 37 32 - 80 - Calm - 30.29 - 10 CLR None
2017-10-17 04:35 39 32 - 75 - Calm - 30.29 - 10 CLR None
2017-10-17 04:15 39 32 37 75 360° 3 - 30.28 - 10 CLR None
2017-10-17 03:55 39 32 37 75 330° 3 - 30.27 - 10 CLR None
2017-10-17 03:35 39 32 37 75 330° 3 - 30.27 - 10 CLR None
2017-10-17 03:15 39 32 34 75 340° 7 - 30.27 - 10 CLR None
2017-10-17 02:55 37 32 - 80 - Calm - 30.27 - 10 CLR None
2017-10-17 02:35 37 32 35 80 330° 3 - 30.27 - 10 CLR None
2017-10-17 02:15 39 32 - 75 - Calm - 30.27 - 10 CLR None
2017-10-17 01:55 39 32 37 75 320° 3 - 30.26 - 10 CLR None
2017-10-17 01:35 41 32 38 70 360° 5 - 30.27 - 10 CLR None
2017-10-17 01:15 41 32 - 70 - Calm - 30.27 - 10 CLR None
2017-10-17 00:55 43 32 41 65 10° 3 - 30.26 - 10 CLR None
2017-10-17 00:35 43 32 39 65 350° 6 - 30.26 - 10 CLR None
2017-10-17 00:15 43 32 - 65 - Calm - 30.27 - 10 CLR None
2017-10-16 23:55 45 34 42 65 350° 5 - 30.25 - 10 CLR None
2017-10-16 23:35 45 34 41 65 360° 7 - 30.25 - 10 CLR None
2017-10-16 23:15 45 36 43 70 350° 3 - 30.25 - 10 CLR None
2017-10-16 22:55 45 36 41 70 360° 6 - 30.25 - 10 CLR None
2017-10-16 22:35 46 36 44 65 10° 5 - 30.24 - 10 CLR None
2017-10-16 22:15 46 36 45 65 20° 3 - 30.23 - 10 CLR None
2017-10-16 21:55 46 36 44 65 10° 5 - 30.23 - 10 CLR None
2017-10-16 21:35 46 36 44 65 360° 5 - 30.21 - 10 CLR None
2017-10-16 21:15 45 36 43 70 360° 3 - 30.20 - 10 CLR None
2017-10-16 20:55 43 39 41 86 360° 3 - 30.19 - 10 CLR None
2017-10-16 20:35 43 39 - 86 - Calm - 30.18 - 10 CLR None
2017-10-16 20:15 45 37 - 75 - Calm - 30.17 - 10 CLR None
2017-10-16 19:55 45 39 - 81 - Calm - 30.17 - 10 CLR None
2017-10-16 19:35 46 37 - 70 - Calm - 30.16 - 10 CLR None
2017-10-16 19:15 50 36 - 57 - Calm - 30.15 - 10 CLR None
2017-10-16 18:55 50 34 48 53 360° 5 - 30.14 - 10 CLR None
2017-10-16 18:35 52 36 - 53 360° 6 - 30.14 - 10 CLR None
2017-10-16 18:15 54 36 - 50 10° 6 - 30.13 - 10 CLR None
2017-10-16 17:55 55 36 - 47 340° 7 - 30.12 - 10 CLR None
2017-10-16 17:35 55 36 - 47 340° 3 - 30.12 - 10 CLR None
2017-10-16 17:15 55 36 - 47 350° 6 17 30.11 - 10 CLR None
2017-10-16 16:55 57 36 - 44 330° 12 16 30.11 - 10 CLR None
2017-10-16 16:35 57 37 - 47 360° 8 20 30.10 - 10 CLR None
2017-10-16 16:15 55 37 - 50 350° 10 16 30.09 - 10 CLR None
2017-10-16 15:55 55 37 - 50 360° 9 16 30.09 - 10 CLR None
2017-10-16 15:35 57 37 - 47 340° 9 - 30.09 - 10 CLR None
2017-10-16 15:15 55 39 - 54 350° 7 17 30.09 - 10 FEW041 None

Support USWX by starting your Amazon purchase here.